createdAt,value
2023-01-17T00:01:34.531Z,100678.52
2023-01-17T00:04:20.331Z,100687.18
2023-01-17T00:07:06.206Z,100690.00
2023-01-17T00:09:52.001Z,100686.22
2023-01-17T00:12:22.324Z,100680.96
2023-01-17T00:14:49.389Z,100680.38
2023-01-17T00:17:16.520Z,100680.85
2023-01-17T00:20:02.513Z,100681.61
2023-01-17T00:22:49.321Z,100681.70
2023-01-17T00:25:39.714Z,100676.25
2023-01-17T00:28:06.962Z,100674.43
2023-01-17T00:30:37.005Z,100673.73
2023-01-17T00:33:04.125Z,100669.45
2023-01-17T00:35:33.949Z,100671.80
2023-01-17T00:38:07.547Z,100669.50
2023-01-17T00:40:35.405Z,100665.71
2023-01-17T00:43:21.212Z,100661.05
2023-01-17T00:46:07.181Z,100666.88
2023-01-17T00:48:52.986Z,100664.17
2023-01-17T00:51:38.882Z,100660.96
2023-01-17T00:54:24.761Z,100657.39
2023-01-17T00:57:11.046Z,100649.71
2023-01-17T00:59:56.933Z,100645.23
2023-01-17T01:02:42.886Z,100643.94
2023-01-17T01:05:28.817Z,100643.20
2023-01-17T01:08:15.043Z,100635.50
2023-01-17T01:11:01.826Z,100637.30
2023-01-17T01:13:48.175Z,100639.66
2023-01-17T01:16:34.570Z,100638.45
2023-01-17T01:19:20.511Z,100630.73
2023-01-17T01:22:06.506Z,100626.98
2023-01-17T01:24:52.595Z,100625.52
2023-01-17T01:27:38.381Z,100624.96
2023-01-17T01:30:25.195Z,100621.58
2023-01-17T01:33:10.996Z,100616.08
2023-01-17T01:35:38.025Z,100618.58
2023-01-17T01:38:05.071Z,100619.96
2023-01-17T01:40:32.223Z,100614.05
2023-01-17T01:43:00.111Z,100611.86
2023-01-17T01:45:29.135Z,100611.23
2023-01-17T01:48:05.795Z,100606.09
2023-01-17T01:50:34.243Z,100601.96
2023-01-17T01:53:02.298Z,100603.27
2023-01-17T01:55:36.461Z,100604.42
2023-01-17T01:58:09.208Z,100600.26
2023-01-17T02:00:36.803Z,100599.81
2023-01-17T02:03:12.325Z,100598.55
2023-01-17T02:05:40.073Z,100597.86
2023-01-17T02:08:41.592Z,100593.79
2023-01-17T02:11:11.030Z,100600.09
2023-01-17T02:13:38.080Z,100596.59
2023-01-17T02:16:16.413Z,100594.75
2023-01-17T02:18:51.338Z,100596.80
2023-01-17T02:21:28.503Z,100593.58
2023-01-17T02:24:27.304Z,100587.94
2023-01-17T02:27:11.853Z,100594.30
2023-01-17T02:29:57.757Z,100597.67
2023-01-17T02:32:51.627Z,100600.52
2023-01-17T02:35:22.641Z,100595.61
2023-01-17T02:38:01.543Z,100596.43
2023-01-17T02:40:36.242Z,100588.52
2023-01-17T02:43:06.961Z,100588.34
2023-01-17T02:45:34.110Z,100591.36
2023-01-17T02:48:01.244Z,100580.27
2023-01-17T02:50:35.061Z,100573.60
2023-01-17T02:53:05.169Z,100571.67
2023-01-17T02:56:06.105Z,100568.55
2023-01-17T02:59:01.827Z,100564.58
2023-01-17T03:01:53.842Z,100563.45
2023-01-17T03:04:44.879Z,100558.94
2023-01-17T03:07:16.535Z,100561.45
2023-01-17T03:09:47.570Z,100561.58
2023-01-17T03:12:14.920Z,100558.69
2023-01-17T03:14:42.081Z,100562.77
2023-01-17T03:17:09.321Z,100563.22
2023-01-17T03:19:36.470Z,100566.59
2023-01-17T03:22:03.625Z,100566.27
2023-01-17T03:24:30.772Z,100569.61
2023-01-17T03:26:57.925Z,100567.80
2023-01-17T03:29:25.066Z,100565.54
2023-01-17T03:31:52.224Z,100560.80
2023-01-17T03:34:19.286Z,100564.05
2023-01-17T03:36:46.423Z,100562.34
2023-01-17T03:39:13.565Z,100560.40
2023-01-17T03:41:40.628Z,100556.09
2023-01-17T03:44:07.760Z,100551.55
2023-01-17T03:46:34.908Z,100553.54
2023-01-17T03:49:01.974Z,100553.32
2023-01-17T03:51:29.106Z,100551.39
2023-01-17T03:53:56.210Z,100549.52
2023-01-17T03:56:23.507Z,100542.95
2023-01-17T03:58:51.805Z,100541.83
2023-01-17T04:01:19.465Z,100537.44
2023-01-17T04:03:46.716Z,100531.26
2023-01-17T04:06:13.953Z,100534.06
2023-01-17T04:08:41.920Z,100528.98
2023-01-17T04:11:08.976Z,100526.27
2023-01-17T04:13:36.114Z,100525.76
2023-01-17T04:16:04.337Z,100529.11
2023-01-17T04:18:31.546Z,100527.82
2023-01-17T04:20:58.588Z,100532.73
2023-01-17T04:23:25.736Z,100517.92
2023-01-17T04:25:52.818Z,100528.02
2023-01-17T04:28:19.933Z,100524.80
2023-01-17T04:30:47.137Z,100520.21
2023-01-17T04:33:14.537Z,100518.13
2023-01-17T04:35:41.765Z,100514.83
2023-01-17T04:38:08.877Z,100515.21
2023-01-17T04:40:36.196Z,100512.63
2023-01-17T04:43:03.249Z,100515.55
2023-01-17T04:45:30.493Z,100517.27
2023-01-17T04:48:03.169Z,100517.52
2023-01-17T04:50:30.324Z,100522.58
2023-01-17T04:52:57.471Z,100522.88
2023-01-17T04:55:24.533Z,100525.91
2023-01-17T04:57:51.571Z,100529.57
2023-01-17T05:00:19.332Z,100528.05
2023-01-17T05:02:46.514Z,100524.77
2023-01-17T05:05:13.832Z,100522.31
2023-01-17T05:07:41.088Z,100511.29
2023-01-17T05:10:08.980Z,100512.30
2023-01-17T05:12:36.003Z,100512.00
2023-01-17T05:15:03.555Z,100509.64
2023-01-17T05:17:30.620Z,100506.48
2023-01-17T05:19:57.757Z,100503.35
2023-01-17T05:22:24.949Z,100502.64
2023-01-17T05:24:52.068Z,100507.02
2023-01-17T05:27:19.105Z,100507.27
2023-01-17T05:29:46.191Z,100509.48
2023-01-17T05:32:13.396Z,100505.42
2023-01-17T05:34:40.647Z,100501.23
2023-01-17T05:37:07.698Z,100497.90
2023-01-17T05:39:34.933Z,100495.94
2023-01-17T05:42:02.115Z,100492.48
2023-01-17T05:44:29.245Z,100490.77
2023-01-17T05:46:56.703Z,100487.72
2023-01-17T05:49:23.961Z,100490.39
2023-01-17T05:51:52.411Z,100486.22
2023-01-17T05:54:21.326Z,100486.11
2023-01-17T05:56:48.626Z,100481.89
2023-01-17T05:59:17.317Z,100483.89
2023-01-17T06:01:48.102Z,100479.38
2023-01-17T06:04:15.297Z,100476.43
2023-01-17T06:06:42.503Z,100475.48
2023-01-17T06:09:10.679Z,100470.05
2023-01-17T06:11:37.831Z,100462.96
2023-01-17T06:14:04.975Z,100468.27
2023-01-17T06:16:32.020Z,100477.72
2023-01-17T06:18:59.076Z,100484.34
2023-01-17T06:21:26.129Z,100479.27
2023-01-17T06:23:55.621Z,100484.27
2023-01-17T06:26:23.021Z,100475.54
2023-01-17T06:28:50.123Z,100467.31
2023-01-17T06:31:17.502Z,100460.39
2023-01-17T06:33:45.266Z,100466.41
2023-01-17T06:36:13.009Z,100466.98
2023-01-17T06:38:40.290Z,100460.06
2023-01-17T06:41:07.464Z,100457.19
2023-01-17T06:43:35.303Z,100458.30
2023-01-17T06:46:02.466Z,100461.27
2023-01-17T06:48:29.720Z,100444.16
2023-01-17T06:50:58.286Z,100444.77
2023-01-17T06:53:25.509Z,100446.34
2023-01-17T06:55:56.248Z,100440.87
2023-01-17T06:58:24.130Z,100441.08
2023-01-17T07:00:51.647Z,100442.70
2023-01-17T07:03:24.106Z,100450.73
2023-01-17T07:05:51.532Z,100452.20
2023-01-17T07:08:19.726Z,100437.70
2023-01-17T07:10:47.652Z,100438.73
2023-01-17T07:13:14.894Z,100435.81
2023-01-17T07:15:42.424Z,100443.36
2023-01-17T07:18:09.703Z,100438.86
2023-01-17T07:20:38.803Z,100444.70
2023-01-17T07:23:07.103Z,100444.13
2023-01-17T07:33:13.598Z,100433.02
2023-01-17T07:35:40.848Z,100434.97
2023-01-17T07:38:39.192Z,100435.94
2023-01-17T07:41:06.888Z,100436.05
2023-01-17T07:43:35.787Z,100435.98
2023-01-17T07:46:02.827Z,100435.92
2023-01-17T07:48:31.047Z,100432.80
2023-01-17T07:50:58.867Z,100434.14
2023-01-17T07:53:27.137Z,100431.18
2023-01-17T07:55:55.502Z,100426.46
2023-01-17T07:58:28.149Z,100428.39
2023-01-17T08:00:55.564Z,100431.30
2023-01-17T08:03:22.809Z,100423.11
2023-01-17T08:05:54.361Z,100437.91
2023-01-17T08:08:22.141Z,100437.09
2023-01-17T08:10:49.889Z,100434.39
2023-01-17T08:13:17.242Z,100430.36
2023-01-17T14:07:04.657Z,100280.75
2023-01-17T14:09:42.196Z,100278.95
2023-01-17T14:12:09.404Z,100274.34
2023-01-17T14:14:45.537Z,100264.36
2023-01-17T14:17:28.562Z,100270.35
2023-01-17T14:19:57.935Z,100275.24
2023-01-17T14:22:25.137Z,100278.35
2023-01-17T14:25:17.782Z,100276.20
2023-01-17T14:27:52.247Z,100279.41
2023-01-17T14:30:40.363Z,100278.07
2023-01-17T14:33:14.957Z,100279.18
2023-01-17T14:35:58.173Z,100282.73
2023-01-17T14:38:30.023Z,100281.18
2023-01-17T14:41:00.280Z,100274.34
2023-01-17T14:43:28.878Z,100269.61
2023-01-17T14:46:01.182Z,100265.41
2023-01-17T14:48:28.495Z,100265.94
2023-01-17T14:50:58.987Z,100268.56
2023-01-17T14:53:31.826Z,100271.38
2023-01-17T14:56:13.639Z,100273.49
2023-01-17T14:58:42.450Z,100274.54
2023-01-17T15:01:18.039Z,100276.81
2023-01-17T15:03:47.453Z,100271.73
2023-01-17T15:06:26.048Z,100270.52
2023-01-17T15:08:56.091Z,100271.25
2023-01-17T15:11:30.023Z,100268.45
2023-01-17T15:13:59.348Z,100264.38
2023-01-17T15:16:33.847Z,100264.85
2023-01-17T15:19:01.562Z,100269.44
2023-01-17T15:21:32.917Z,100274.69
2023-01-17T15:24:08.540Z,100279.23
2023-01-17T15:26:41.020Z,100275.71
2023-01-17T15:29:22.737Z,100272.21
2023-01-17T15:31:58.820Z,100278.50
2023-01-17T15:34:36.587Z,100284.38
2023-01-17T15:37:09.034Z,100272.25
2023-01-17T15:39:40.825Z,100280.84
2023-01-17T15:42:20.484Z,100288.34
2023-01-17T15:44:49.163Z,100291.11
2023-01-17T15:47:31.584Z,100278.34
2023-01-17T15:50:02.064Z,100279.89
2023-01-17T15:52:29.333Z,100286.30
2023-01-17T15:55:13.430Z,100284.88
2023-01-17T15:57:40.828Z,100277.69
2023-01-17T16:00:09.524Z,100263.45
2023-01-17T16:02:42.905Z,100259.73
2023-01-17T16:05:31.364Z,100275.83
2023-01-17T16:08:04.522Z,100281.77
2023-01-17T16:10:33.910Z,100279.95
2023-01-17T16:13:01.971Z,100282.38
2023-01-17T16:15:29.439Z,100281.11
2023-01-17T16:18:15.885Z,100282.46
2023-01-17T16:20:47.540Z,100285.23
2023-01-17T16:23:14.791Z,100279.27
2023-01-17T16:25:41.971Z,100281.05
2023-01-17T16:28:09.502Z,100276.80
2023-01-17T23:31:24.036Z,100275.08
2023-01-17T23:33:51.440Z,100272.80
2023-01-17T23:36:18.695Z,100268.77
2023-01-17T23:38:45.740Z,100268.77
2023-01-17T23:41:31.651Z,100270.13
2023-01-17T23:43:58.899Z,100275.65
2023-01-17T23:46:29.512Z,100278.84
2023-01-17T23:48:56.578Z,100278.89
2023-01-17T23:51:29.960Z,100288.39
2023-01-17T23:54:04.785Z,100289.56
2023-01-17T23:56:32.077Z,100293.80
2023-01-17T23:59:00.728Z,100292.56
